Airfield :
LOGIN :

Register | Disclaimer

   EN    FR    IT 

 










Legend :    VFR   Marginal VFR   IFR   Intensive IFR   Very Intensive IFR
Visi :
Ceiling :
>= 8 km
>= 3000ft
5 to 8 km
1000 to 3000 ft
1500m to 5 km
500 to 1000 ft
800 to 1500m
200 to 500 ft
< 800m
< 200 ft
Symbols :   Thunderstorms  Fog  Heavy snow  Heavy precipitations  Wind > 20 kt
SIGMETs :     Misc.  Thunderstorms  Icing  Turbulence  Mountain Waves  Volcanic Ashes







- Airport Elevation : 80 ft
- IATA code : LPL
- Download approach charts


EGGP - Liverpool John Lennon

CURRENT METAR :
  • 190250Z 26003KT 5000 -RADZ PRFG BR OVC003 08/08 Q1016

EXPIRED METARs :
  • 190220Z 23002KT 6000 R27/1400 RADZ MIFG OVC003 07/07 Q1016
  • 190150Z 21005KT 0700 R27/P1500 RADZ FG OVC001 08/07 Q1016
  • 190120Z 20004KT 0700 R27/0225 RADZ FG OVC001 08/07 Q1016
  • 190050Z 19003KT 0500 R27/0200 RADZ FG OVC001 07/07 Q1017
  • 190020Z 19003KT 4000 RADZ OVC003 08/07 Q1017

TAF AMD TAF EGGP
Valid from the 19 at 02:00 until the 20 at 00:00 UTC


190253Z 1902/1924 17005KT 0300 FG BKN001
BECMG 1902/1905 30010KT
TEMPO 1902/1912 5000 -RADZ BKN004
BECMG 1912/1915 9999 NSW BKN010
TEMPO 1915/1921 SCT010
BECMG 1921/1924 7000 BKN004
ATIS : +44 151 907 2000 (option 5 or ext 5150)
Met : +44 871 750 5150
No reported NOTAMs for that airfield.



MET'MAP, your aeronautical weather chart ! - Copyright ORBIFLY December 2007 - Disclaimer

ORBIFLY MET'MAP TEAM :

Programming & Development : Alexandra Zaïnal
Concept & Development : Baudouin d'Aumeries
Co-Development & Prog : Marc-Olivier Méhu
Technical & hardware support : Manuel Goepfert

Contact : metmap@orbifly.com




SOURCES & CREDITS :

   NOAA